createdAt,value
2022-12-27T00:01:18.937Z,8.90
2022-12-27T00:03:46.789Z,8.90
2022-12-27T00:06:20.020Z,8.90
2022-12-27T00:08:47.969Z,8.90
2022-12-27T00:11:19.335Z,8.90
2022-12-27T00:13:47.327Z,8.80
2022-12-27T00:16:17.109Z,8.80
2022-12-27T00:18:45.048Z,8.80
2022-12-27T00:21:13.881Z,8.80
2022-12-27T00:23:45.923Z,8.80
2022-12-27T00:26:22.451Z,8.70
2022-12-27T00:28:50.857Z,8.60
2022-12-27T00:31:20.105Z,8.60
2022-12-27T00:33:49.640Z,8.50
2022-12-27T00:36:19.607Z,8.50
2022-12-27T00:38:47.207Z,8.50
2022-12-27T00:41:15.088Z,8.50
2022-12-27T00:43:43.513Z,8.50
2022-12-27T00:46:11.014Z,8.40
2022-12-27T00:48:38.327Z,8.30
2022-12-27T00:51:12.867Z,8.30
2022-12-27T00:53:40.778Z,8.30
2022-12-27T00:56:15.886Z,8.30
2022-12-27T00:58:43.824Z,8.20
2022-12-27T01:01:14.845Z,8.20
2022-12-27T01:03:42.751Z,8.20
2022-12-27T01:06:12.821Z,8.20
2022-12-27T01:08:40.294Z,8.20
2022-12-27T01:11:08.134Z,8.20
2022-12-27T01:13:36.121Z,8.20
2022-12-27T01:16:16.839Z,8.20
2022-12-27T01:18:45.596Z,8.10
2022-12-27T01:21:15.883Z,8.20
2022-12-27T01:23:43.570Z,8.10
2022-12-27T01:26:16.877Z,8.10
2022-12-27T01:28:44.697Z,8.10
2022-12-27T01:31:15.939Z,8.10
2022-12-27T01:33:46.811Z,8.00
2022-12-27T01:36:19.874Z,7.90
2022-12-27T01:38:51.239Z,7.90
2022-12-27T01:41:58.837Z,7.80
2022-12-27T01:44:47.292Z,7.80
2022-12-27T01:47:42.835Z,7.80
2022-12-27T01:50:28.193Z,7.70
2022-12-27T01:53:19.028Z,7.60
2022-12-27T01:55:52.753Z,7.60
2022-12-27T01:58:23.388Z,7.50
2022-12-27T02:00:51.470Z,7.50
2022-12-27T02:03:28.679Z,7.50
2022-12-27T02:05:57.615Z,7.40
2022-12-27T02:08:27.740Z,7.40
2022-12-27T02:10:57.255Z,7.40
2022-12-27T02:13:24.574Z,7.40
2022-12-27T02:15:51.966Z,7.40
2022-12-27T02:18:19.752Z,7.30
2022-12-27T02:21:35.103Z,7.30
2022-12-27T02:24:16.339Z,7.20
2022-12-27T02:27:03.643Z,7.20
2022-12-27T02:29:58.557Z,7.00
2022-12-27T02:32:42.257Z,6.80
2022-12-27T02:35:19.290Z,6.60
2022-12-27T02:37:55.229Z,6.50
2022-12-27T02:40:43.697Z,6.40
2022-12-27T02:43:29.857Z,6.30
2022-12-27T02:46:21.708Z,6.20
2022-12-27T02:49:13.415Z,6.20
2022-12-27T02:52:14.165Z,6.20
2022-12-27T02:54:54.398Z,6.10
2022-12-27T02:57:44.076Z,6.10
2022-12-27T03:00:37.758Z,6.00
2022-12-27T03:03:39.688Z,6.10
2022-12-27T03:06:48.586Z,6.00
2022-12-27T03:09:51.024Z,6.00
2022-12-27T03:13:02.128Z,5.90
2022-12-27T03:15:56.620Z,5.90
2022-12-27T03:18:43.107Z,5.80
2022-12-27T03:21:33.137Z,5.80
2022-12-27T03:24:36.783Z,5.80
2022-12-27T03:27:11.091Z,5.70
2022-12-27T03:29:57.452Z,5.60
2022-12-27T03:32:44.217Z,5.60
2022-12-27T03:35:17.770Z,5.50
2022-12-27T03:38:05.614Z,5.40
2022-12-27T03:40:39.702Z,5.40
2022-12-27T03:43:14.170Z,5.40
2022-12-27T03:46:34.779Z,5.30
2022-12-27T03:49:27.293Z,5.30
2022-12-27T03:52:34.466Z,5.30
2022-12-27T03:55:02.868Z,5.30
2022-12-27T03:57:30.406Z,5.30
2022-12-27T03:59:57.942Z,5.30
2022-12-27T04:02:25.413Z,5.30
2022-12-27T04:04:52.965Z,5.30
2022-12-27T04:07:20.568Z,5.20
2022-12-27T04:10:06.136Z,5.20
2022-12-27T04:12:52.049Z,5.30
2022-12-27T04:15:37.891Z,5.20
2022-12-27T04:18:23.532Z,5.20
2022-12-27T04:21:09.801Z,5.20
2022-12-27T04:23:55.665Z,5.20
2022-12-27T04:26:42.615Z,5.20
2022-12-27T04:29:28.473Z,5.20
2022-12-27T04:32:14.252Z,5.20
2022-12-27T04:34:44.461Z,5.10
2022-12-27T04:37:15.536Z,5.10
2022-12-27T04:40:07.196Z,5.00
2022-12-27T04:42:53.487Z,5.00
2022-12-27T04:45:39.435Z,5.00
2022-12-27T04:48:29.457Z,5.00
2022-12-27T04:51:15.288Z,5.00
2022-12-27T04:54:01.095Z,4.90
2022-12-27T04:56:28.292Z,4.90
2022-12-27T04:59:13.829Z,4.90
2022-12-27T05:02:00.640Z,4.90
2022-12-27T05:04:27.955Z,4.90
2022-12-27T05:06:56.371Z,4.80
2022-12-27T05:09:43.471Z,4.80
2022-12-27T05:12:30.163Z,4.80
2022-12-27T05:14:57.524Z,4.70
2022-12-27T05:17:24.883Z,4.70
2022-12-27T05:19:52.471Z,4.70
2022-12-27T05:22:38.442Z,4.60
2022-12-27T05:25:24.471Z,4.60
2022-12-27T05:27:52.002Z,4.60
2022-12-27T05:30:19.132Z,4.60
2022-12-27T05:32:46.524Z,4.60
2022-12-27T05:35:14.016Z,4.50
2022-12-27T05:37:41.556Z,4.50
2022-12-27T05:40:11.039Z,4.50
2022-12-27T05:42:38.248Z,4.50
2022-12-27T05:45:06.586Z,4.50
2022-12-27T05:47:34.018Z,4.50
2022-12-27T05:50:01.171Z,4.50
2022-12-27T05:52:30.051Z,4.50
2022-12-27T05:54:57.288Z,4.40
2022-12-27T05:57:24.614Z,4.40
2022-12-27T05:59:51.812Z,4.30
2022-12-27T06:02:19.256Z,4.30
2022-12-27T06:04:46.671Z,4.20
2022-12-27T06:07:14.537Z,4.20
2022-12-27T06:09:41.842Z,4.20
2022-12-27T06:12:09.181Z,4.10
2022-12-27T06:14:36.383Z,4.10
2022-12-27T06:17:03.632Z,4.10
2022-12-27T06:19:30.845Z,4.00
2022-12-27T06:21:58.100Z,4.00
2022-12-27T06:24:25.570Z,3.90
2022-12-27T06:26:52.742Z,3.80
2022-12-27T06:29:19.922Z,3.80
2022-12-27T06:31:47.180Z,3.80
2022-12-27T06:34:14.381Z,3.80
2022-12-27T06:36:43.232Z,3.70
2022-12-27T06:39:10.743Z,3.60
2022-12-27T06:41:37.952Z,3.60
2022-12-27T06:44:05.470Z,3.50
2022-12-27T06:46:35.001Z,3.40
2022-12-27T06:49:02.716Z,3.40
2022-12-27T06:51:30.855Z,3.30
2022-12-27T06:53:57.969Z,3.20
2022-12-27T06:56:25.309Z,3.20
2022-12-27T06:58:52.729Z,3.20
2022-12-27T07:01:23.504Z,3.10
2022-12-27T07:03:55.798Z,3.10
2022-12-27T07:06:25.533Z,3.10
2022-12-27T07:08:53.227Z,3.10
2022-12-27T07:11:21.668Z,3.00
2022-12-27T07:13:54.328Z,3.00
2022-12-27T07:16:24.511Z,3.10
2022-12-27T07:18:52.955Z,3.20
2022-12-27T07:21:23.615Z,3.20
2022-12-27T07:23:51.480Z,3.20
2022-12-27T07:26:24.561Z,3.20
2022-12-27T07:28:55.646Z,3.20
2022-12-27T07:31:26.935Z,3.20
2022-12-27T07:33:54.224Z,3.20
2022-12-27T07:36:28.087Z,3.20
2022-12-27T07:38:55.227Z,3.20
2022-12-27T07:41:22.920Z,3.20
2022-12-27T07:43:50.312Z,3.20
2022-12-27T07:46:22.971Z,3.20
2022-12-27T07:48:50.408Z,3.20
2022-12-27T07:51:18.176Z,3.20
2022-12-27T07:53:48.392Z,3.20
2022-12-27T07:56:25.754Z,3.20
2022-12-27T07:58:54.900Z,3.20
2022-12-27T08:01:23.439Z,3.40
2022-12-27T08:03:50.898Z,3.50
2022-12-27T08:06:22.846Z,3.70
2022-12-27T08:08:51.824Z,3.90
2022-12-27T08:11:19.204Z,3.90
2022-12-27T08:13:47.111Z,3.90
2022-12-27T08:16:18.767Z,3.90
2022-12-27T08:18:47.130Z,4.00
2022-12-27T08:21:14.790Z,4.10
2022-12-27T08:23:42.251Z,4.10
2022-12-27T08:26:10.141Z,4.10
2022-12-27T08:28:37.621Z,4.00
2022-12-27T08:31:08.377Z,4.10
2022-12-27T08:33:37.173Z,4.20
2022-12-27T08:36:29.049Z,4.20
2022-12-27T08:38:56.428Z,4.30
2022-12-27T08:41:23.898Z,4.30
2022-12-27T08:43:51.232Z,4.30
2022-12-27T08:46:21.306Z,4.30
2022-12-27T08:48:50.194Z,4.40
2022-12-27T08:51:27.242Z,4.40
2022-12-27T08:53:58.975Z,4.40
2022-12-27T08:56:26.133Z,4.40
2022-12-27T08:58:53.312Z,4.50
2022-12-27T09:01:20.709Z,4.60
2022-12-27T09:03:47.985Z,4.70
2022-12-27T09:06:23.626Z,4.70
2022-12-27T09:08:51.873Z,4.60
2022-12-27T09:11:30.871Z,4.70
2022-12-27T09:14:00.982Z,4.70
2022-12-27T09:16:29.657Z,4.80
2022-12-27T09:18:58.863Z,4.90
2022-12-27T09:21:29.177Z,4.90
2022-12-27T09:23:56.581Z,5.10
2022-12-27T09:26:29.262Z,5.60
2022-12-27T09:28:58.132Z,6.50
2022-12-27T09:31:26.164Z,7.40
2022-12-27T09:33:54.304Z,7.80
2022-12-27T09:36:24.998Z,7.40
2022-12-27T09:38:53.355Z,6.70
2022-12-27T09:42:12.271Z,6.60
2022-12-27T09:44:20.173Z,7.30
2022-12-27T09:46:59.588Z,8.60
2022-12-27T09:49:35.336Z,9.20
2022-12-27T09:52:18.583Z,9.20
2022-12-27T09:54:58.021Z,8.80
2022-12-27T09:57:48.936Z,8.60
2022-12-27T10:00:19.941Z,9.00
2022-12-27T10:03:06.455Z,9.40
2022-12-27T10:05:37.853Z,8.70
2022-12-27T10:08:39.522Z,8.60
2022-12-27T10:11:39.857Z,8.70
2022-12-27T10:14:13.329Z,8.30
2022-12-27T10:16:57.248Z,7.90
2022-12-27T10:19:49.235Z,7.60
2022-12-27T10:22:36.074Z,7.60
2022-12-27T10:25:13.212Z,7.10
2022-12-27T10:27:41.780Z,6.60
2022-12-27T10:30:20.632Z,6.60
2022-12-27T10:32:49.118Z,7.00
2022-12-27T10:35:19.004Z,6.80
2022-12-27T10:37:47.349Z,6.90
2022-12-27T10:40:17.677Z,7.10
2022-12-27T10:43:18.831Z,7.10
2022-12-27T10:45:46.335Z,7.10
2022-12-27T10:48:16.552Z,7.30
2022-12-27T10:50:56.093Z,7.20
2022-12-27T10:53:39.169Z,6.90
2022-12-27T10:56:21.519Z,6.50
2022-12-27T10:58:58.124Z,6.10
2022-12-27T11:01:29.032Z,6.00
2022-12-27T11:04:20.759Z,5.80
2022-12-27T11:07:05.677Z,5.70
2022-12-27T11:09:37.466Z,5.70
2022-12-27T11:12:24.497Z,5.70
2022-12-27T11:15:04.349Z,5.60
2022-12-27T11:17:52.317Z,5.70
2022-12-27T11:20:28.348Z,5.70
2022-12-27T11:23:05.834Z,5.70
2022-12-27T11:25:35.133Z,5.70
2022-12-27T11:28:17.364Z,5.60
2022-12-27T11:30:57.514Z,5.60
2022-12-27T11:33:45.562Z,5.60
2022-12-27T11:36:14.424Z,5.70
2022-12-27T11:38:45.276Z,5.60
2022-12-27T11:41:35.746Z,5.60
2022-12-27T11:44:09.281Z,5.70
2022-12-27T11:46:59.499Z,5.70
2022-12-27T11:49:36.237Z,5.70
2022-12-27T11:52:34.326Z,5.70
2022-12-27T11:55:21.091Z,5.80
2022-12-27T11:58:17.220Z,5.70
2022-12-27T12:01:03.607Z,5.60
2022-12-27T12:03:52.489Z,5.50
2022-12-27T12:06:41.087Z,5.40
2022-12-27T12:09:21.229Z,5.50
2022-12-27T12:12:26.453Z,5.50
2022-12-27T12:15:02.507Z,5.50
2022-12-27T12:18:04.682Z,5.50
2022-12-27T12:20:50.755Z,5.40
2022-12-27T12:23:55.840Z,5.40
2022-12-27T12:26:27.253Z,5.40
2022-12-27T12:29:31.665Z,5.50
2022-12-27T12:32:22.503Z,5.60
2022-12-27T12:35:06.568Z,5.60
2022-12-27T12:38:01.635Z,5.50
2022-12-27T12:40:52.345Z,5.40
2022-12-27T12:43:33.692Z,5.30
2022-12-27T12:46:19.981Z,5.30
2022-12-27T12:49:05.990Z,5.20
2022-12-27T12:51:38.519Z,5.30
2022-12-27T12:54:33.071Z,5.40
2022-12-27T12:57:09.842Z,5.50
2022-12-27T13:00:04.996Z,5.40
2022-12-27T13:02:53.234Z,5.40
2022-12-27T13:05:40.391Z,5.70
2022-12-27T13:08:22.815Z,6.00
2022-12-27T13:10:56.512Z,6.20
2022-12-27T13:13:45.208Z,6.40
2022-12-27T13:16:34.119Z,6.50
2022-12-27T13:19:35.005Z,6.60
2022-12-27T13:22:20.901Z,7.40
2022-12-27T13:25:33.289Z,7.70
2022-12-27T13:28:37.491Z,7.90
2022-12-27T13:31:39.976Z,8.20
2022-12-27T13:34:29.766Z,7.80
2022-12-27T13:37:37.369Z,7.70
2022-12-27T13:40:17.734Z,7.70
2022-12-27T13:43:29.767Z,7.40
2022-12-27T13:46:14.321Z,7.00
2022-12-27T13:49:07.120Z,7.00
2022-12-27T13:51:45.477Z,7.20
2022-12-27T13:54:49.698Z,7.00
2022-12-27T13:57:50.285Z,6.40
2022-12-27T14:00:21.757Z,5.80
2022-12-27T14:03:19.275Z,5.60
2022-12-27T14:05:57.386Z,5.40
2022-12-27T14:08:48.555Z,5.30
2022-12-27T14:11:39.571Z,5.20
2022-12-27T14:14:09.989Z,5.20
2022-12-27T14:17:18.298Z,5.10
2022-12-27T14:19:57.435Z,5.10
2022-12-27T14:22:43.305Z,5.10
2022-12-27T14:25:28.653Z,5.00
2022-12-27T14:28:29.065Z,5.00
2022-12-27T14:31:17.370Z,5.00
2022-12-27T14:34:17.113Z,4.90
2022-12-27T14:36:59.672Z,5.00
2022-12-27T14:39:32.527Z,4.90
2022-12-27T14:42:34.623Z,4.90
2022-12-27T14:45:27.059Z,4.80
2022-12-27T14:48:15.677Z,4.70
2022-12-27T14:54:37.279Z,4.70
2022-12-27T14:57:18.539Z,4.60
2022-12-27T14:59:58.377Z,4.50
2022-12-27T15:02:47.611Z,4.50
2022-12-27T15:05:43.977Z,4.50
2022-12-27T15:08:23.639Z,4.40
2022-12-27T15:11:24.017Z,4.30
2022-12-27T15:13:54.833Z,4.30
2022-12-27T15:16:46.026Z,4.30
2022-12-27T15:19:31.151Z,4.40
2022-12-27T15:22:18.629Z,4.50
2022-12-27T15:25:13.605Z,4.50
2022-12-27T15:28:03.053Z,4.40
2022-12-27T15:30:39.110Z,4.40
2022-12-27T15:34:01.483Z,4.50
2022-12-27T15:36:41.552Z,4.60
2022-12-27T15:39:35.196Z,4.50
2022-12-27T15:42:48.700Z,4.60
2022-12-27T15:45:23.209Z,4.50
2022-12-27T15:48:26.686Z,4.50
2022-12-27T15:50:54.475Z,4.50
2022-12-27T15:53:55.617Z,4.50
2022-12-27T15:56:53.778Z,4.40
2022-12-27T15:59:40.860Z,4.40
2022-12-27T16:02:26.603Z,4.50
2022-12-27T16:05:11.203Z,4.40
2022-12-27T16:07:43.372Z,4.40
2022-12-27T16:10:31.600Z,4.40
2022-12-27T16:13:13.784Z,4.50
2022-12-27T16:15:45.219Z,4.40
2022-12-27T16:18:24.671Z,4.40
2022-12-27T16:20:58.403Z,4.40
2022-12-27T16:23:30.326Z,4.50
2022-12-27T16:26:41.751Z,4.50
2022-12-27T16:29:16.376Z,4.50
2022-12-27T16:31:50.634Z,4.60
2022-12-27T16:34:31.670Z,4.50
2022-12-27T16:37:00.585Z,4.50
2022-12-27T16:39:30.643Z,4.60
2022-12-27T16:42:07.751Z,4.50
2022-12-27T16:44:57.681Z,4.50
2022-12-27T16:47:44.724Z,4.50
2022-12-27T16:50:41.504Z,4.50
2022-12-27T16:53:39.064Z,4.40
2022-12-27T16:56:20.240Z,4.40
2022-12-27T16:58:48.524Z,4.40
2022-12-27T17:01:50.802Z,4.40
2022-12-27T17:04:50.288Z,4.30
2022-12-27T17:07:41.517Z,4.30
2022-12-27T17:10:44.898Z,4.30
2022-12-27T17:13:20.718Z,4.30
2022-12-27T17:15:54.068Z,4.20
2022-12-27T17:18:34.976Z,4.20
2022-12-27T17:21:29.681Z,4.10
2022-12-27T17:24:13.690Z,4.10
2022-12-27T17:26:53.317Z,4.00
2022-12-27T17:29:29.363Z,4.00
2022-12-27T17:32:21.804Z,4.00
2022-12-27T17:35:07.833Z,4.00
2022-12-27T17:38:20.152Z,4.00
2022-12-27T17:41:13.651Z,4.00
2022-12-27T17:44:41.349Z,3.90
2022-12-27T17:47:27.322Z,3.90
2022-12-27T17:49:58.212Z,3.80
2022-12-27T17:52:44.921Z,3.80
2022-12-27T17:55:47.597Z,3.90
2022-12-27T17:58:17.154Z,3.90
2022-12-27T18:00:50.776Z,4.00
2022-12-27T18:03:18.509Z,4.00
2022-12-27T18:05:46.814Z,4.10
2022-12-27T18:08:29.825Z,4.00
2022-12-27T18:10:58.544Z,4.00
2022-12-27T18:13:28.621Z,4.00
2022-12-27T18:15:57.827Z,4.00
2022-12-27T18:18:30.007Z,4.00
2022-12-27T18:21:04.269Z,3.90
2022-12-27T18:23:41.610Z,3.80
2022-12-27T18:26:16.271Z,3.70
2022-12-27T18:28:44.973Z,3.70
2022-12-27T18:31:24.396Z,3.60
2022-12-27T18:33:59.281Z,3.60
2022-12-27T18:37:00.874Z,3.60
2022-12-27T18:39:31.718Z,3.50
2022-12-27T18:42:01.487Z,3.30
2022-12-27T18:44:34.918Z,3.30
2022-12-27T18:47:04.392Z,3.20
2022-12-27T18:49:37.306Z,3.20
2022-12-27T18:52:21.508Z,3.20
2022-12-27T18:54:49.007Z,3.10
2022-12-27T18:57:33.419Z,3.00
2022-12-27T19:00:14.485Z,3.00
2022-12-27T19:02:43.529Z,3.00
2022-12-27T19:05:20.810Z,3.00
2022-12-27T19:08:08.104Z,3.00
2022-12-27T19:10:35.805Z,3.00
2022-12-27T19:13:03.448Z,3.00
2022-12-27T19:15:40.325Z,2.90
2022-12-27T19:18:30.031Z,2.90
2022-12-27T19:21:02.280Z,3.00
2022-12-27T19:23:39.326Z,3.00
2022-12-27T19:26:31.603Z,2.90
2022-12-27T19:29:08.304Z,2.90
2022-12-27T19:31:38.550Z,2.90
2022-12-27T19:34:17.202Z,2.90
2022-12-27T19:36:46.131Z,2.90
2022-12-27T19:39:25.434Z,2.90
2022-12-27T19:41:53.474Z,3.00
2022-12-27T19:44:28.672Z,2.90
2022-12-27T19:46:56.446Z,2.90
2022-12-27T19:49:42.811Z,2.80
2022-12-27T19:52:23.186Z,2.90
2022-12-27T19:54:52.923Z,3.00
2022-12-27T19:57:22.463Z,3.00
2022-12-27T19:59:50.177Z,3.10
2022-12-27T20:02:18.730Z,3.10
2022-12-27T20:04:46.593Z,3.20
2022-12-27T20:07:25.638Z,3.20
2022-12-27T20:09:52.955Z,3.20
2022-12-27T20:12:20.220Z,3.20
2022-12-27T20:14:47.768Z,3.20
2022-12-27T20:17:15.088Z,3.30
2022-12-27T20:19:42.418Z,3.40
2022-12-27T20:22:09.657Z,3.40
2022-12-27T20:24:38.100Z,3.40
2022-12-27T20:27:07.182Z,3.50
2022-12-27T20:29:34.921Z,3.40
2022-12-27T20:32:02.490Z,3.50
2022-12-27T20:34:29.864Z,3.50
2022-12-27T20:36:58.773Z,3.50
2022-12-27T20:39:27.659Z,3.50
2022-12-27T20:41:57.486Z,3.60
2022-12-27T20:44:26.468Z,3.60
2022-12-27T20:46:58.014Z,3.60
2022-12-27T20:49:27.748Z,3.60
2022-12-27T20:51:55.406Z,3.60
2022-12-27T20:54:22.926Z,3.60
2022-12-27T20:56:50.470Z,3.60
2022-12-27T20:59:19.820Z,3.60
2022-12-27T21:01:50.481Z,3.70
2022-12-27T21:04:22.472Z,3.70
2022-12-27T21:06:50.080Z,3.70
2022-12-27T21:09:17.598Z,3.80
2022-12-27T21:11:46.439Z,3.80
2022-12-27T21:14:13.768Z,3.80
2022-12-27T21:16:40.967Z,3.80
2022-12-27T21:19:08.291Z,3.80
2022-12-27T21:21:37.637Z,3.80
2022-12-27T21:24:07.335Z,3.80
2022-12-27T21:26:37.264Z,3.80
2022-12-27T21:29:08.718Z,3.90
2022-12-27T21:31:37.535Z,3.80
2022-12-27T21:34:05.801Z,3.80
2022-12-27T21:36:34.872Z,3.80
2022-12-27T21:39:04.567Z,3.80
2022-12-27T21:41:35.823Z,3.80
2022-12-27T21:44:04.371Z,3.70
2022-12-27T21:46:41.109Z,3.70
2022-12-27T21:49:11.403Z,3.70
2022-12-27T21:51:40.425Z,3.80
2022-12-27T21:54:08.775Z,3.80
2022-12-27T21:56:37.100Z,3.80
2022-12-27T21:59:10.184Z,3.80
2022-12-27T22:01:51.038Z,3.90
2022-12-27T22:04:23.183Z,3.90
2022-12-27T22:06:50.848Z,3.90
2022-12-27T22:09:19.788Z,3.90
2022-12-27T22:11:48.373Z,4.00
2022-12-27T22:14:16.067Z,4.00
2022-12-27T22:16:43.995Z,4.00
2022-12-27T22:19:14.250Z,4.00
2022-12-27T22:21:43.615Z,4.00
2022-12-27T22:24:17.624Z,4.00
2022-12-27T22:26:45.484Z,3.90
2022-12-27T22:29:14.039Z,3.90
2022-12-27T22:31:43.459Z,4.00
2022-12-27T22:34:10.979Z,3.90
2022-12-27T22:36:38.528Z,3.90
2022-12-27T22:39:06.380Z,3.80
2022-12-27T22:41:36.225Z,3.80
2022-12-27T22:44:07.018Z,3.70
2022-12-27T22:47:24.431Z,3.70
2022-12-27T22:49:23.488Z,3.70
2022-12-27T22:51:50.944Z,3.60
2022-12-27T22:54:18.639Z,3.70
2022-12-27T22:56:46.343Z,3.60
2022-12-27T22:59:16.821Z,3.50
2022-12-27T23:01:46.427Z,3.30
2022-12-27T23:04:15.654Z,3.30
2022-12-27T23:06:43.817Z,3.10
2022-12-27T23:09:11.352Z,3.00
2022-12-27T23:11:41.252Z,3.00
2022-12-27T23:14:14.174Z,2.80
2022-12-27T23:16:45.088Z,2.80
2022-12-27T23:19:13.715Z,2.70
2022-12-27T23:21:41.604Z,2.80
2022-12-27T23:24:09.415Z,2.80
2022-12-27T23:26:37.349Z,2.80
2022-12-27T23:29:04.764Z,2.80
2022-12-27T23:31:32.433Z,2.60
2022-12-27T23:34:00.232Z,2.60
2022-12-27T23:36:27.575Z,2.70
2022-12-27T23:38:55.558Z,2.60
2022-12-27T23:41:24.363Z,2.50
2022-12-27T23:43:54.964Z,2.40
2022-12-27T23:46:29.396Z,2.50
2022-12-27T23:48:58.457Z,2.40
2022-12-27T23:51:26.907Z,2.40
2022-12-27T23:53:54.351Z,2.30
2022-12-27T23:56:27.783Z,2.30
2022-12-27T23:58:57.144Z,2.30
